Time;durP1;ratioP1;P1;durP2;ratioP2;P2;SDS_P1;SDS_P2;PMS_P1;PMS_P2;Temp;Humidity;BMP_temperature;BMP_pressure;BME280_temperature;BME280_humidity;BME280_pressure;Samples;Min_cycle;Max_cycle;Signal;HPM_P1;HPM_P2
2023/11/17 00:00:54;;;;;;;16.67;7.60;;;;;;;;;;5113364;28;20107;-27
2023/11/17 00:03:19;;;;;;;13.85;6.95;;;;;;;;;;5113486;28;20351;-27
2023/11/17 00:05:44;;;;;;;15.15;7.38;;;;;;;;;;5113343;28;20016;-27
2023/11/17 00:08:10;;;;;;;11.30;6.75;;;;;;;;;;5113953;28;20034;-27
2023/11/17 00:10:35;;;;;;;10.48;6.18;;;;;;;;;;5113867;28;20020;-26
2023/11/17 00:13:00;;;;;;;12.83;6.83;;;;;;;;;;5114087;28;20020;-27
2023/11/17 00:15:25;;;;;;;13.43;6.77;;;;;;;;;;5117829;28;20253;-27
2023/11/17 00:17:51;;;;;;;13.53;6.60;;;;;;;;;;5117221;28;20351;-27
2023/11/17 00:20:17;;;;;;;11.30;6.53;;;;;;;;;;5117158;28;20268;-27
2023/11/17 00:22:42;;;;;;;13.75;7.20;;;;;;;;;;5117112;28;20122;-27
2023/11/17 00:25:08;;;;;;;10.60;6.60;;;;;;;;;;5117619;28;20023;-27
2023/11/17 00:27:37;;;;;;;15.15;6.88;;;;;;;;;;5117299;28;20752;-26
2023/11/17 00:30:02;;;;;;;11.85;6.45;;;;;;;;;;5117120;28;20409;-27
2023/11/17 00:32:28;;;;;;;15.93;6.93;;;;;;;;;;5098679;28;20069;-27
2023/11/17 00:34:53;;;;;;;16.93;6.97;;;;;;;;;;5117394;28;20007;-27
2023/11/17 00:37:18;;;;;;;13.38;6.75;;;;;;;;;;5117118;28;20289;-27
2023/11/17 00:39:43;;;;;;;19.08;8.05;;;;;;;;;;5116755;28;20104;-27
2023/11/17 00:42:10;;;;;;;13.70;7.53;;;;;;;;;;5117313;28;20019;-27
2023/11/17 00:44:35;;;;;;;16.35;7.82;;;;;;;;;;5116903;28;20285;-27
2023/11/17 00:47:04;;;;;;;15.73;7.65;;;;;;;;;;5117172;28;20031;-27
2023/11/17 00:49:29;;;;;;;11.77;7.20;;;;;;;;;;5116803;28;20055;-27
2023/11/17 00:51:54;;;;;;;13.07;7.43;;;;;;;;;;5116521;28;20427;-27
2023/11/17 00:54:25;;;;;;;17.20;7.40;;;;;;;;;;5116910;28;20281;-27
2023/11/17 00:56:54;;;;;;;14.52;6.88;;;;;;;;;;5116375;28;20253;-27
2023/11/17 00:59:19;;;;;;;13.20;7.25;;;;;;;;;;5116644;28;20047;-27
2023/11/17 01:01:44;;;;;;;11.75;7.18;;;;;;;;;;5116591;28;20455;-27
2023/11/17 01:04:09;;;;;;;16.63;7.57;;;;;;;;;;5116319;28;20444;-27
2023/11/17 01:06:34;;;;;;;14.47;7.30;;;;;;;;;;5116878;28;20253;-27
2023/11/17 01:08:59;;;;;;;16.07;7.70;;;;;;;;;;5116454;28;20747;-27
2023/11/17 01:11:26;;;;;;;14.75;7.32;;;;;;;;;;5116581;28;20348;-27
2023/11/17 01:13:51;;;;;;;13.52;7.32;;;;;;;;;;5116440;28;20016;-27
2023/11/17 01:16:16;;;;;;;12.50;7.00;;;;;;;;;;5116133;28;20035;-26
2023/11/17 01:18:42;;;;;;;16.80;7.73;;;;;;;;;;5116296;28;20288;-27
2023/11/17 01:21:07;;;;;;;14.07;7.55;;;;;;;;;;5115983;28;20253;-27
2023/11/17 01:23:33;;;;;;;12.50;7.40;;;;;;;;;;5115991;28;20030;-27
2023/11/17 01:25:58;;;;;;;15.55;7.57;;;;;;;;;;5115856;28;20075;-27
2023/11/17 01:28:23;;;;;;;18.05;7.82;;;;;;;;;;5116007;28;20486;-27
2023/11/17 01:30:48;;;;;;;13.63;7.07;;;;;;;;;;5115846;28;20016;-27
2023/11/17 01:33:14;;;;;;;15.47;7.80;;;;;;;;;;5116867;28;20301;-27
2023/11/17 01:35:39;;;;;;;14.73;7.43;;;;;;;;;;5116220;28;20246;-26
2023/11/17 01:38:04;;;;;;;17.17;7.70;;;;;;;;;;5116644;28;20386;-27
2023/11/17 01:40:30;;;;;;;12.67;7.63;;;;;;;;;;5115096;28;20262;-26
2023/11/17 01:43:05;;;;;;;13.30;7.45;;;;;;;;;;5115041;28;20836;-27
2023/11/17 01:45:30;;;;;;;16.80;7.28;;;;;;;;;;5114635;28;20047;-27
2023/11/17 01:47:55;;;;;;;16.00;7.40;;;;;;;;;;5114852;28;20041;-27
2023/11/17 01:50:21;;;;;;;10.90;6.50;;;;;;;;;;5115185;28;20615;-27
2023/11/17 01:52:46;;;;;;;13.67;7.20;;;;;;;;;;5114861;28;20262;-27
2023/11/17 01:55:12;;;;;;;13.65;7.57;;;;;;;;;;5115391;28;20683;-27
2023/11/17 01:57:38;;;;;;;12.32;7.60;;;;;;;;;;5115495;28;20016;-27
2023/11/17 02:00:06;;;;;;;15.88;8.02;;;;;;;;;;5115512;28;20031;-27
2023/11/17 02:02:32;;;;;;;18.17;7.13;;;;;;;;;;5115374;28;20023;-27
2023/11/17 02:04:57;;;;;;;15.48;8.20;;;;;;;;;;5115220;28;20011;-26
2023/11/17 02:07:26;;;;;;;14.60;7.93;;;;;;;;;;5115082;28;20099;-27
2023/11/17 02:09:57;;;;;;;13.02;7.70;;;;;;;;;;5115520;28;20684;-26
2023/11/17 02:12:29;;;;;;;10.93;7.40;;;;;;;;;;5096541;28;20204;-26
2023/11/17 02:14:56;;;;;;;16.65;8.10;;;;;;;;;;5115209;28;20091;-27
2023/11/17 02:17:28;;;;;;;16.80;7.22;;;;;;;;;;5114836;28;20028;-27
2023/11/17 02:19:53;;;;;;;15.25;7.57;;;;;;;;;;5115204;28;20023;-27
2023/11/17 02:22:21;;;;;;;13.45;6.93;;;;;;;;;;5114807;28;20045;-27
2023/11/17 02:25:10;;;;;;;13.85;6.90;;;;;;;;;;5114993;28;20019;-27
2023/11/17 02:27:50;;;;;;;14.75;6.75;;;;;;;;;;5102390;28;20031;-27
2023/11/17 02:30:19;;;;;;;12.35;6.88;;;;;;;;;;5114502;28;20047;-27
2023/11/17 02:32:50;;;;;;;15.40;6.53;;;;;;;;;;5114435;28;20020;-26
2023/11/17 02:35:15;;;;;;;13.90;6.90;;;;;;;;;;5114853;28;20450;-26
2023/11/17 02:37:41;;;;;;;16.85;7.15;;;;;;;;;;5114606;28;20068;-27
2023/11/17 02:40:18;;;;;;;11.20;6.65;;;;;;;;;;5114704;28;20096;-27
2023/11/17 02:42:44;;;;;;;11.50;6.68;;;;;;;;;;5114703;28;20039;-27
2023/11/17 02:45:10;;;;;;;14.98;6.95;;;;;;;;;;5115035;28;20458;-27
2023/11/17 02:47:35;;;;;;;16.42;7.03;;;;;;;;;;5114563;28;20373;-27
2023/11/17 02:50:01;;;;;;;14.93;6.30;;;;;;;;;;5114229;28;20106;-27
2023/11/17 02:52:42;;;;;;;16.50;6.78;;;;;;;;;;5114425;28;20016;-27
2023/11/17 02:55:10;;;;;;;12.13;6.70;;;;;;;;;;5114011;28;20043;-26
2023/11/17 02:57:35;;;;;;;12.32;6.30;;;;;;;;;;5114501;28;20022;-27
2023/11/17 03:00:01;;;;;;;10.88;6.07;;;;;;;;;;5114369;28;20019;-27
2023/11/17 03:02:27;;;;;;;12.00;7.03;;;;;;;;;;5113596;28;20024;-27
2023/11/17 03:04:55;;;;;;;15.43;6.53;;;;;;;;;;5113587;28;20026;-27
2023/11/17 03:07:20;;;;;;;14.18;6.43;;;;;;;;;;5113511;28;20023;-27
2023/11/17 03:09:47;;;;;;;11.48;5.78;;;;;;;;;;5113413;28;20107;-26
2023/11/17 03:12:12;;;;;;;13.20;6.05;;;;;;;;;;5113732;28;20055;-27
2023/11/17 03:14:39;;;;;;;15.20;6.00;;;;;;;;;;5113290;28;20039;-27
2023/11/17 03:17:09;;;;;;;12.15;5.63;;;;;;;;;;5112476;28;20073;-26
2023/11/17 03:19:34;;;;;;;18.60;6.22;;;;;;;;;;5114179;28;20421;-27
2023/11/17 03:21:59;;;;;;;14.82;6.20;;;;;;;;;;5113818;28;20058;-27
2023/11/17 03:24:26;;;;;;;13.77;5.93;;;;;;;;;;5114071;28;20026;-27
2023/11/17 03:26:55;;;;;;;13.73;5.82;;;;;;;;;;5114101;28;20420;-26
2023/11/17 03:29:21;;;;;;;11.63;6.22;;;;;;;;;;5113968;28;20019;-27
2023/11/17 03:31:49;;;;;;;11.48;5.72;;;;;;;;;;5113764;28;20016;-27
2023/11/17 03:34:23;;;;;;;10.75;6.03;;;;;;;;;;5114003;28;20012;-27
2023/11/17 03:36:48;;;;;;;11.82;5.57;;;;;;;;;;5113681;28;20023;-27
2023/11/17 03:39:13;;;;;;;9.90;5.40;;;;;;;;;;5114207;28;20024;-27
2023/11/17 03:41:39;;;;;;;9.02;5.75;;;;;;;;;;5113931;28;20015;-27
2023/11/17 03:44:06;;;;;;;10.85;5.63;;;;;;;;;;5113895;28;20049;-27
2023/11/17 03:46:31;;;;;;;10.73;5.75;;;;;;;;;;5113785;28;20462;-27
2023/11/17 03:48:56;;;;;;;9.10;5.70;;;;;;;;;;5116083;28;20016;-27
2023/11/17 03:51:22;;;;;;;13.60;5.70;;;;;;;;;;5117687;28;20608;-27
2023/11/17 03:53:48;;;;;;;12.95;6.72;;;;;;;;;;5117393;28;20341;-27
2023/11/17 03:56:13;;;;;;;10.82;6.13;;;;;;;;;;5117873;28;20051;-27
2023/11/17 03:58:38;;;;;;;10.77;6.07;;;;;;;;;;5117557;28;20020;-27
2023/11/17 04:01:04;;;;;;;10.43;5.80;;;;;;;;;;5117586;28;20008;-27
2023/11/17 04:03:29;;;;;;;11.65;6.25;;;;;;;;;;5117532;28;20254;-27
2023/11/17 04:05:54;;;;;;;12.00;6.05;;;;;;;;;;5117431;28;20011;-27
2023/11/17 04:08:20;;;;;;;11.43;6.57;;;;;;;;;;5117514;28;20020;-27
2023/11/17 04:10:45;;;;;;;11.65;5.93;;;;;;;;;;5117640;28;20280;-26
2023/11/17 04:13:11;;;;;;;10.87;5.60;;;;;;;;;;5117288;28;20404;-26
2023/11/17 04:15:36;;;;;;;12.98;5.60;;;;;;;;;;5117375;28;20260;-28
2023/11/17 04:18:01;;;;;;;14.73;5.90;;;;;;;;;;5099157;28;20019;-27
2023/11/17 04:20:26;;;;;;;10.15;5.47;;;;;;;;;;5117805;28;20098;-27
2023/11/17 04:22:52;;;;;;;11.10;5.80;;;;;;;;;;5117488;28;20020;-27
2023/11/17 04:25:17;;;;;;;15.15;6.25;;;;;;;;;;5117120;28;20268;-30
2023/11/17 04:27:43;;;;;;;15.15;6.03;;;;;;;;;;5117598;28;20096;-27
2023/11/17 04:30:08;;;;;;;13.25;5.60;;;;;;;;;;5117573;28;20015;-27
2023/11/17 04:32:35;;;;;;;12.88;6.15;;;;;;;;;;5117514;28;20026;-28
2023/11/17 04:35:00;;;;;;;9.27;5.28;;;;;;;;;;5116840;28;20051;-27
2023/11/17 04:37:25;;;;;;;13.05;5.70;;;;;;;;;;5117232;28;20043;-28
2023/11/17 04:39:51;;;;;;;11.10;5.95;;;;;;;;;;5116592;28;20020;-26
2023/11/17 04:42:16;;;;;;;9.60;5.78;;;;;;;;;;5116792;28;20023;-26
2023/11/17 04:44:41;;;;;;;10.83;6.00;;;;;;;;;;5117325;28;20022;-26
2023/11/17 04:47:06;;;;;;;9.63;5.70;;;;;;;;;;5116688;28;20746;-26
2023/11/17 04:49:31;;;;;;;13.07;6.00;;;;;;;;;;5117147;28;20277;-26
2023/11/17 04:51:57;;;;;;;14.53;6.03;;;;;;;;;;5116583;28;20269;-28
2023/11/17 04:54:22;;;;;;;16.20;5.93;;;;;;;;;;5116574;28;20297;-26
2023/11/17 04:56:48;;;;;;;10.82;5.40;;;;;;;;;;5116795;28;20023;-28
2023/11/17 04:59:13;;;;;;;11.70;5.60;;;;;;;;;;5116663;28;20023;-28
2023/11/17 05:01:38;;;;;;;11.80;6.27;;;;;;;;;;5117021;28;20088;-28
2023/11/17 05:04:04;;;;;;;18.17;5.90;;;;;;;;;;5116430;28;20248;-26
2023/11/17 05:06:29;;;;;;;10.70;5.65;;;;;;;;;;5116748;28;20019;-26
2023/11/17 05:08:54;;;;;;;12.97;5.80;;;;;;;;;;5115641;28;20382;-26
2023/11/17 05:11:23;;;;;;;11.63;5.70;;;;;;;;;;5115632;28;20340;-26
2023/11/17 05:13:48;;;;;;;9.35;5.50;;;;;;;;;;5115530;28;20305;-26
2023/11/17 05:16:14;;;;;;;9.53;5.20;;;;;;;;;;5115484;28;20015;-26
2023/11/17 05:18:39;;;;;;;13.75;5.57;;;;;;;;;;5115907;28;20740;-28
2023/11/17 05:21:06;;;;;;;10.50;5.78;;;;;;;;;;5115638;28;20016;-28
2023/11/17 05:23:31;;;;;;;12.48;5.57;;;;;;;;;;5097609;28;20015;-28
2023/11/17 05:25:56;;;;;;;9.32;5.65;;;;;;;;;;5116242;28;20518;-28
2023/11/17 05:28:21;;;;;;;8.93;5.37;;;;;;;;;;5116256;28;20007;-26
2023/11/17 05:30:47;;;;;;;11.87;5.70;;;;;;;;;;5115825;28;20281;-26
2023/11/17 05:33:12;;;;;;;15.40;6.60;;;;;;;;;;5115805;28;20797;-26
2023/11/17 05:35:37;;;;;;;13.40;6.53;;;;;;;;;;5116281;28;20289;-26
2023/11/17 05:38:02;;;;;;;12.80;6.78;;;;;;;;;;5115918;28;20042;-26
2023/11/17 05:40:28;;;;;;;12.20;6.45;;;;;;;;;;5115934;28;20019;-26
2023/11/17 05:42:53;;;;;;;10.98;6.30;;;;;;;;;;5115644;28;20023;-28
2023/11/17 05:45:19;;;;;;;15.32;7.03;;;;;;;;;;5115937;28;20012;-28
2023/11/17 05:47:44;;;;;;;10.85;6.53;;;;;;;;;;5115803;28;20023;-28
2023/11/17 05:50:11;;;;;;;11.87;6.70;;;;;;;;;;5115489;28;20016;-28
2023/11/17 05:52:36;;;;;;;10.60;6.55;;;;;;;;;;5115343;28;20344;-28
2023/11/17 05:55:03;;;;;;;19.85;7.13;;;;;;;;;;5115274;28;20128;-28
2023/11/17 05:57:28;;;;;;;13.23;6.25;;;;;;;;;;5115677;28;20625;-28
2023/11/17 05:59:56;;;;;;;12.10;6.65;;;;;;;;;;5115257;28;20077;-27
2023/11/17 06:02:21;;;;;;;15.48;6.63;;;;;;;;;;5115476;28;20015;-28
2023/11/17 06:04:47;;;;;;;11.55;6.75;;;;;;;;;;5115143;28;20407;-28
2023/11/17 06:07:12;;;;;;;12.05;6.70;;;;;;;;;;5115076;28;20055;-28
2023/11/17 06:09:38;;;;;;;15.95;6.20;;;;;;;;;;5115588;28;20020;-28
2023/11/17 06:12:06;;;;;;;12.45;6.40;;;;;;;;;;5114703;28;20020;-28
2023/11/17 06:14:31;;;;;;;14.15;6.97;;;;;;;;;;5115237;28;20023;-28
2023/11/17 06:16:57;;;;;;;19.20;6.95;;;;;;;;;;5115041;28;20354;-28
2023/11/17 06:19:22;;;;;;;13.07;6.88;;;;;;;;;;5115150;28;20348;-28
2023/11/17 06:21:48;;;;;;;12.70;6.90;;;;;;;;;;5096534;28;20027;-28
2023/11/17 06:24:16;;;;;;;15.27;7.35;;;;;;;;;;5115029;28;20023;-28
2023/11/17 06:26:43;;;;;;;13.85;6.95;;;;;;;;;;5115090;28;20023;-27
2023/11/17 06:29:08;;;;;;;14.23;7.70;;;;;;;;;;5114565;28;20058;-28
2023/11/17 06:31:33;;;;;;;21.02;7.78;;;;;;;;;;5114930;28;20015;-28
2023/11/17 06:33:59;;;;;;;18.23;7.40;;;;;;;;;;5115089;28;20080;-28
2023/11/17 06:36:24;;;;;;;16.87;7.00;;;;;;;;;;5114503;28;20632;-28
2023/11/17 06:38:49;;;;;;;14.47;6.87;;;;;;;;;;5115128;28;20252;-28
2023/11/17 06:41:15;;;;;;;14.77;6.95;;;;;;;;;;5114689;28;20728;-28
2023/11/17 06:43:40;;;;;;;15.15;6.85;;;;;;;;;;5114788;28;20016;-28
2023/11/17 06:46:07;;;;;;;12.60;7.28;;;;;;;;;;5114685;28;20024;-28
2023/11/17 06:48:33;;;;;;;11.90;7.07;;;;;;;;;;5114353;28;20351;-28
2023/11/17 06:50:58;;;;;;;13.27;7.20;;;;;;;;;;5114302;28;20022;-28
2023/11/17 06:53:23;;;;;;;14.82;7.50;;;;;;;;;;5114592;28;20044;-28
2023/11/17 06:55:49;;;;;;;12.80;7.15;;;;;;;;;;5114266;28;20370;-28
2023/11/17 06:58:14;;;;;;;12.93;7.00;;;;;;;;;;5114229;28;20015;-28
2023/11/17 07:00:40;;;;;;;18.42;7.43;;;;;;;;;;5114376;28;20350;-28
2023/11/17 07:03:06;;;;;;;13.77;7.97;;;;;;;;;;5114396;28;20057;-28
2023/11/17 07:05:32;;;;;;;15.60;7.82;;;;;;;;;;5114300;28;20031;-28
2023/11/17 07:07:57;;;;;;;17.73;8.15;;;;;;;;;;5114207;28;20020;-28
2023/11/17 07:10:25;;;;;;;13.85;7.80;;;;;;;;;;5114242;28;20023;-28
2023/11/17 07:12:52;;;;;;;16.10;8.23;;;;;;;;;;5114138;28;20027;-28
2023/11/17 07:15:17;;;;;;;20.02;8.88;;;;;;;;;;5114129;28;20365;-28
2023/11/17 07:17:42;;;;;;;13.30;8.00;;;;;;;;;;5114147;28;20015;-28
2023/11/17 07:20:11;;;;;;;15.43;8.30;;;;;;;;;;5113862;28;20065;-28
2023/11/17 07:22:38;;;;;;;16.30;8.30;;;;;;;;;;5112923;28;20107;-28
2023/11/17 07:25:03;;;;;;;15.23;8.27;;;;;;;;;;5114189;28;20055;-28
2023/11/17 07:27:28;;;;;;;14.55;8.02;;;;;;;;;;5113781;28;20058;-28
2023/11/17 07:29:53;;;;;;;16.30;7.80;;;;;;;;;;5114234;28;20012;-28
2023/11/17 07:32:19;;;;;;;16.05;7.65;;;;;;;;;;5114094;28;20337;-28
2023/11/17 07:34:44;;;;;;;16.52;7.95;;;;;;;;;;5113595;28;20012;-28
2023/11/17 07:37:09;;;;;;;16.17;8.23;;;;;;;;;;5113741;28;20099;-28
2023/11/17 07:39:34;;;;;;;15.77;8.20;;;;;;;;;;5114190;28;20249;-28
2023/11/17 07:42:00;;;;;;;16.50;7.65;;;;;;;;;;5113943;28;20673;-28
2023/11/17 07:44:25;;;;;;;16.27;8.35;;;;;;;;;;5114505;28;20069;-28
2023/11/17 07:46:50;;;;;;;15.95;7.60;;;;;;;;;;5113791;28;20027;-28
2023/11/17 07:49:17;;;;;;;17.45;7.85;;;;;;;;;;5113784;28;20028;-28
2023/11/17 07:51:42;;;;;;;16.70;7.97;;;;;;;;;;5113784;28;20028;-28
2023/11/17 07:54:08;;;;;;;17.98;8.20;;;;;;;;;;5113591;28;20050;-28
2023/11/17 07:56:33;;;;;;;13.63;7.68;;;;;;;;;;5113374;28;20030;-28
2023/11/17 07:58:59;;;;;;;17.98;8.25;;;;;;;;;;5113607;28;20080;-28
2023/11/17 08:01:25;;;;;;;14.65;7.55;;;;;;;;;;5113565;28;20019;-28
2023/11/17 08:03:50;;;;;;;15.05;7.47;;;;;;;;;;5113357;28;20011;-28
2023/11/17 08:06:15;;;;;;;15.80;8.10;;;;;;;;;;5113444;28;20103;-28
2023/11/17 08:08:40;;;;;;;13.90;7.85;;;;;;;;;;5113598;28;20697;-28
2023/11/17 08:11:06;;;;;;;16.47;7.80;;;;;;;;;;5113285;28;20459;-28
2023/11/17 08:13:31;;;;;;;16.67;8.48;;;;;;;;;;5113534;28;20253;-28
2023/11/17 08:15:57;;;;;;;14.37;7.90;;;;;;;;;;5113324;28;20458;-28
2023/11/17 08:18:22;;;;;;;15.63;8.40;;;;;;;;;;5113253;28;20249;-28
2023/11/17 08:20:47;;;;;;;12.82;7.95;;;;;;;;;;5113779;28;20026;-28
2023/11/17 08:23:14;;;;;;;13.88;8.30;;;;;;;;;;5113441;28;20488;-28
2023/11/17 08:25:39;;;;;;;19.80;8.25;;;;;;;;;;5113447;28;20015;-28
2023/11/17 08:28:04;;;;;;;15.57;7.83;;;;;;;;;;5094819;28;20489;-28
2023/11/17 08:30:30;;;;;;;17.90;8.38;;;;;;;;;;5113547;28;20327;-28
2023/11/17 08:32:55;;;;;;;17.45;8.52;;;;;;;;;;5113613;28;20098;-27
2023/11/17 08:35:22;;;;;;;19.92;9.25;;;;;;;;;;5116517;28;20047;-28
2023/11/17 08:37:47;;;;;;;17.23;8.70;;;;;;;;;;5117046;28;20016;-28
2023/11/17 08:40:12;;;;;;;16.13;9.02;;;;;;;;;;5117255;28;20565;-28
2023/11/17 08:42:39;;;;;;;18.02;9.60;;;;;;;;;;5117248;28;20477;-28
2023/11/17 08:45:07;;;;;;;19.38;9.27;;;;;;;;;;5116962;28;20379;-28
2023/11/17 08:47:53;;;;;;;20.92;10.05;;;;;;;;;;5117409;28;20106;-27
2023/11/17 08:50:18;;;;;;;18.50;9.38;;;;;;;;;;5116402;28;20070;-28
2023/11/17 08:52:45;;;;;;;15.77;9.00;;;;;;;;;;5116547;28;20028;-28
2023/11/17 08:55:13;;;;;;;19.08;9.70;;;;;;;;;;5116315;28;20063;-28
2023/11/17 08:57:39;;;;;;;17.83;9.90;;;;;;;;;;5116730;28;20020;-28
2023/11/17 09:00:11;;;;;;;19.88;9.55;;;;;;;;;;5116352;28;20024;-28
2023/11/17 09:02:37;;;;;;;20.48;9.52;;;;;;;;;;5116601;28;20407;-29
2023/11/17 09:05:04;;;;;;;18.10;10.00;;;;;;;;;;5116560;28;20015;-28
2023/11/17 09:07:29;;;;;;;18.92;9.93;;;;;;;;;;5116206;28;20031;-28
2023/11/17 09:09:55;;;;;;;22.10;9.90;;;;;;;;;;5116533;28;20020;-28
2023/11/17 09:12:20;;;;;;;16.52;9.98;;;;;;;;;;5115964;28;20415;-29
2023/11/17 09:14:45;;;;;;;23.08;10.15;;;;;;;;;;5116110;28;20026;-28
2023/11/17 09:17:12;;;;;;;14.90;9.80;;;;;;;;;;5116063;28;20020;-29
2023/11/17 09:19:38;;;;;;;15.52;9.23;;;;;;;;;;5116289;28;20020;-28
2023/11/17 09:22:06;;;;;;;18.75;9.82;;;;;;;;;;5116237;28;20099;-28
2023/11/17 09:24:31;;;;;;;17.58;9.93;;;;;;;;;;5116458;28;20080;-28
2023/11/17 09:26:57;;;;;;;19.58;9.50;;;;;;;;;;5115886;28;20408;-28
2023/11/17 09:29:23;;;;;;;19.83;9.88;;;;;;;;;;5115736;28;20048;-28
2023/11/17 09:31:48;;;;;;;19.50;9.07;;;;;;;;;;5115858;28;20023;-28
2023/11/17 09:34:14;;;;;;;21.27;9.80;;;;;;;;;;5115743;28;20016;-28
2023/11/17 09:36:40;;;;;;;16.20;9.70;;;;;;;;;;5116358;28;20016;-28
2023/11/17 09:39:09;;;;;;;18.25;9.50;;;;;;;;;;5115682;28;20272;-28
2023/11/17 09:41:34;;;;;;;22.40;9.40;;;;;;;;;;5115580;28;20024;-28
2023/11/17 09:43:59;;;;;;;22.80;10.07;;;;;;;;;;5115865;28;20026;-28
2023/11/17 09:46:27;;;;;;;17.92;9.82;;;;;;;;;;5114888;28;20604;-28
2023/11/17 09:48:58;;;;;;;16.38;9.45;;;;;;;;;;5115576;28;20069;-28
2023/11/17 09:51:24;;;;;;;18.10;9.23;;;;;;;;;;5115660;28;20027;-28
2023/11/17 09:53:49;;;;;;;17.98;9.70;;;;;;;;;;5115277;28;20035;-29
2023/11/17 09:56:15;;;;;;;18.75;10.00;;;;;;;;;;5115838;28;20020;-28
2023/11/17 09:58:42;;;;;;;17.60;9.50;;;;;;;;;;5115829;28;20400;-28
2023/11/17 10:01:10;;;;;;;17.50;9.27;;;;;;;;;;5115481;28;20023;-28
2023/11/17 10:03:36;;;;;;;17.67;9.68;;;;;;;;;;5115402;28;20034;-28
2023/11/17 10:06:04;;;;;;;19.05;9.80;;;;;;;;;;5115162;28;20370;-28
2023/11/17 10:08:29;;;;;;;18.23;10.25;;;;;;;;;;5115221;28;20016;-28
2023/11/17 10:10:55;;;;;;;19.48;10.15;;;;;;;;;;5114842;28;20101;-28
2023/11/17 10:13:23;;;;;;;18.88;9.73;;;;;;;;;;5114690;28;20015;-28
2023/11/17 10:15:52;;;;;;;19.02;9.45;;;;;;;;;;5114892;28;20016;-28
2023/11/17 10:18:29;;;;;;;20.85;9.77;;;;;;;;;;5115041;28;20476;-28
2023/11/17 10:20:56;;;;;;;22.80;9.98;;;;;;;;;;5114991;28;20031;-28
2023/11/17 10:23:21;;;;;;;18.75;9.35;;;;;;;;;;5115043;28;20474;-28
2023/11/17 10:25:54;;;;;;;19.60;9.40;;;;;;;;;;5114987;28;20047;-27
2023/11/17 10:28:19;;;;;;;;;;;;;;;;;;5115068;28;20020;-29
2023/11/17 10:30:45;;;;;;;18.07;9.50;;;;;;;;;;5114892;28;19912;-28
2023/11/17 10:33:16;;;;;;;17.77;9.43;;;;;;;;;;5115080;28;20638;-28
2023/11/17 10:36:02;;;;;;;19.27;9.05;;;;;;;;;;5114548;28;20020;-28
2023/11/17 10:38:27;;;;;;;16.88;8.77;;;;;;;;;;5115029;28;20016;-28
2023/11/17 10:40:53;;;;;;;17.27;8.38;;;;;;;;;;5114381;28;20080;-28
2023/11/17 10:43:18;;;;;;;17.83;8.60;;;;;;;;;;5114233;28;20141;-28
2023/11/17 10:45:45;;;;;;;15.05;9.30;;;;;;;;;;5114336;28;20027;-28
2023/11/17 10:48:13;;;;;;;21.00;9.40;;;;;;;;;;5114642;28;20421;-28
2023/11/17 10:50:44;;;;;;;16.67;8.27;;;;;;;;;;5114308;28;20133;-28
2023/11/17 10:53:20;;;;;;;13.38;8.15;;;;;;;;;;5114029;28;20085;-29
2023/11/17 10:55:48;;;;;;;18.52;8.73;;;;;;;;;;5114407;28;20446;-28
2023/11/17 10:58:15;;;;;;;17.98;8.07;;;;;;;;;;5114942;28;20023;-28
2023/11/17 11:00:41;;;;;;;13.30;7.63;;;;;;;;;;5114639;28;20507;-28
2023/11/17 11:03:07;;;;;;;17.55;7.65;;;;;;;;;;5114024;28;20020;-28
2023/11/17 11:05:34;;;;;;;18.17;8.02;;;;;;;;;;5114051;28;20028;-28
2023/11/17 11:08:01;;;;;;;12.93;7.43;;;;;;;;;;5114225;28;20024;-28
2023/11/17 11:10:26;;;;;;;14.90;7.85;;;;;;;;;;5114435;28;20023;-28
2023/11/17 11:12:52;;;;;;;16.95;7.88;;;;;;;;;;5113876;28;20088;-27
2023/11/17 11:15:17;;;;;;;13.65;6.90;;;;;;;;;;5114081;28;20011;-28
2023/11/17 11:17:55;;;;;;;15.70;9.02;;;;;;;;;;5095594;28;20024;-28
2023/11/17 11:20:21;;;;;;;15.98;7.65;;;;;;;;;;5114001;28;20464;-28
2023/11/17 11:22:46;;;;;;;15.10;7.10;;;;;;;;;;5114029;28;20113;-28
2023/11/17 11:25:12;;;;;;;12.57;7.00;;;;;;;;;;5114340;28;20027;-28
2023/11/17 11:27:37;;;;;;;12.15;6.72;;;;;;;;;;5114000;28;20027;-28
2023/11/17 11:30:06;;;;;;;13.50;6.68;;;;;;;;;;5113895;28;20027;-28
2023/11/17 11:32:31;;;;;;;11.63;6.55;;;;;;;;;;5113966;28;20034;-28
2023/11/17 11:34:57;;;;;;;13.60;5.82;;;;;;;;;;5113685;28;20016;-28
2023/11/17 11:37:23;;;;;;;11.90;6.13;;;;;;;;;;5113634;28;20030;-28
2023/11/17 11:39:48;;;;;;;12.80;6.35;;;;;;;;;;5113795;28;20023;-28
2023/11/17 11:42:14;;;;;;;9.70;5.93;;;;;;;;;;5113936;28;20016;-28
2023/11/17 11:44:40;;;;;;;12.27;5.72;;;;;;;;;;5113896;28;20253;-28
2023/11/17 11:47:06;;;;;;;12.93;6.03;;;;;;;;;;5114227;28;20020;-28
2023/11/17 11:49:32;;;;;;;12.73;6.78;;;;;;;;;;5113516;28;20024;-28
2023/11/17 11:52:00;;;;;;;12.80;6.65;;;;;;;;;;5113757;28;20027;-28
2023/11/17 11:54:26;;;;;;;10.13;5.93;;;;;;;;;;5113509;28;20091;-28
2023/11/17 11:56:51;;;;;;;10.32;6.20;;;;;;;;;;5113735;28;20126;-28
2023/11/17 11:59:16;;;;;;;11.20;6.70;;;;;;;;;;5113698;28;20011;-28
2023/11/17 12:01:42;;;;;;;12.57;6.97;;;;;;;;;;5113434;28;20370;-27
2023/11/17 12:04:10;;;;;;;16.20;7.07;;;;;;;;;;5113624;28;20398;-27
2023/11/17 12:06:36;;;;;;;13.48;7.07;;;;;;;;;;5113517;28;20478;-26
2023/11/17 12:09:09;;;;;;;14.45;7.28;;;;;;;;;;5114187;28;20019;-28
2023/11/17 12:11:34;;;;;;;12.90;7.53;;;;;;;;;;5117494;28;20024;-26
2023/11/17 12:13:59;;;;;;;11.73;7.00;;;;;;;;;;5117211;28;20103;-26
2023/11/17 12:16:30;;;;;;;15.10;7.65;;;;;;;;;;5117032;28;20039;-26
2023/11/17 12:18:58;;;;;;;15.02;7.30;;;;;;;;;;5117535;28;20061;-27
2023/11/17 12:21:24;;;;;;;12.13;7.50;;;;;;;;;;5117397;28;20020;-26
2023/11/17 12:23:56;;;;;;;13.43;7.50;;;;;;;;;;5117011;28;20018;-26
2023/11/17 12:26:24;;;;;;;19.20;8.03;;;;;;;;;;5098797;28;20019;-26
2023/11/17 12:28:50;;;;;;;11.93;7.07;;;;;;;;;;5116831;28;20058;-27
2023/11/17 12:31:15;;;;;;;14.43;7.18;;;;;;;;;;5117140;28;20047;-27
2023/11/17 12:33:41;;;;;;;14.20;6.70;;;;;;;;;;5117124;28;20008;-26
2023/11/17 12:36:14;;;;;;;12.65;6.82;;;;;;;;;;5117360;28;20393;-26
2023/11/17 12:38:40;;;;;;;12.43;6.90;;;;;;;;;;5117224;28;20489;-27
2023/11/17 12:41:09;;;;;;;12.88;6.70;;;;;;;;;;5117025;28;20019;-27
2023/11/17 12:43:35;;;;;;;12.30;6.25;;;;;;;;;;5116634;28;20022;-27
2023/11/17 12:46:00;;;;;;;10.75;6.47;;;;;;;;;;5116665;28;20024;-27
2023/11/17 12:48:28;;;;;;;13.10;6.72;;;;;;;;;;5116458;28;20024;-27
2023/11/17 12:50:57;;;;;;;13.88;6.55;;;;;;;;;;5116436;28;20034;-27
2023/11/17 12:53:23;;;;;;;12.77;6.60;;;;;;;;;;5116369;28;20040;-27
2023/11/17 12:55:48;;;;;;;14.50;6.10;;;;;;;;;;5098015;28;20106;-26
2023/11/17 12:58:14;;;;;;;10.60;6.50;;;;;;;;;;5116317;28;20046;-27
2023/11/17 13:00:39;;;;;;;10.77;6.30;;;;;;;;;;5116529;28;20015;-27
2023/11/17 13:03:05;;;;;;;15.05;6.78;;;;;;;;;;5116445;28;20023;-27
2023/11/17 13:05:30;;;;;;;10.25;6.13;;;;;;;;;;5116179;28;20382;-27
2023/11/17 13:07:55;;;;;;;10.45;6.20;;;;;;;;;;5116690;28;20019;-27
2023/11/17 13:10:20;;;;;;;10.37;6.30;;;;;;;;;;5116386;28;20070;-27
2023/11/17 13:12:47;;;;;;;13.15;6.30;;;;;;;;;;5116007;28;20657;-26
2023/11/17 13:15:14;;;;;;;10.30;6.32;;;;;;;;;;5115941;28;20094;-27
2023/11/17 13:17:39;;;;;;;15.07;6.20;;;;;;;;;;5116129;28;20011;-27
2023/11/17 13:20:13;;;;;;;15.80;6.25;;;;;;;;;;5115145;28;20023;-27
2023/11/17 13:22:39;;;;;;;9.00;5.57;;;;;;;;;;5116338;28;20020;-27
2023/11/17 13:25:07;;;;;;;12.02;5.60;;;;;;;;;;5115816;28;20034;-27
2023/11/17 13:27:39;;;;;;;11.43;6.15;;;;;;;;;;5116205;28;20068;-26
2023/11/17 13:30:09;;;;;;;14.50;6.00;;;;;;;;;;5115854;28;20026;-27
2023/11/17 13:32:56;;;;;;;12.90;6.00;;;;;;;;;;5116022;28;20081;-27
2023/11/17 13:35:21;;;;;;;14.70;6.13;;;;;;;;;;5115745;28;20011;-27
2023/11/17 13:37:47;;;;;;;13.65;7.10;;;;;;;;;;5115586;28;20028;-27
2023/11/17 13:40:23;;;;;;;14.90;6.80;;;;;;;;;;5116413;28;20450;-27
2023/11/17 13:42:49;;;;;;;12.32;6.13;;;;;;;;;;5116047;28;20028;-27
2023/11/17 13:45:14;;;;;;;11.73;5.70;;;;;;;;;;5115408;28;20019;-27
2023/11/17 13:47:40;;;;;;;8.35;5.80;;;;;;;;;;5115409;28;20069;-27
2023/11/17 13:50:14;;;;;;;13.18;6.00;;;;;;;;;;5115575;28;20027;-27
2023/11/17 13:52:40;;;;;;;8.30;5.35;;;;;;;;;;5115918;28;20408;-27
2023/11/17 13:55:05;;;;;;;8.90;5.50;;;;;;;;;;5115071;28;20044;-27
2023/11/17 13:57:31;;;;;;;9.52;5.32;;;;;;;;;;5115475;28;20261;-27
2023/11/17 13:59:56;;;;;;;9.25;5.40;;;;;;;;;;5115137;28;20051;-27
2023/11/17 14:02:22;;;;;;;9.80;5.67;;;;;;;;;;5115682;28;20055;-27
2023/11/17 14:04:50;;;;;;;11.32;5.85;;;;;;;;;;5114948;28;20744;-27
2023/11/17 14:07:15;;;;;;;10.80;5.47;;;;;;;;;;5115606;28;20023;-26
2023/11/17 14:09:40;;;;;;;13.35;6.78;;;;;;;;;;5114809;28;20028;-27
2023/11/17 14:12:06;;;;;;;13.27;6.60;;;;;;;;;;5115499;28;20016;-27
2023/11/17 14:14:32;;;;;;;17.13;7.20;;;;;;;;;;5114961;28;20809;-27
2023/11/17 14:16:59;;;;;;;12.63;6.78;;;;;;;;;;5115202;28;20022;-27
2023/11/17 14:19:27;;;;;;;13.75;7.03;;;;;;;;;;5115050;28;20023;-27
2023/11/17 14:21:53;;;;;;;11.48;6.25;;;;;;;;;;5115305;28;20389;-27
2023/11/17 14:24:19;;;;;;;12.52;6.28;;;;;;;;;;5114948;28;20032;-26
2023/11/17 14:26:48;;;;;;;12.32;5.97;;;;;;;;;;5114570;28;20019;-27